createdAt,value
2019-05-15T00:01:16.551Z,97642.38
2019-05-15T00:03:44.735Z,97633.48
2019-05-15T00:06:12.895Z,97639.28
2019-05-15T00:08:41.095Z,97632.72
2019-05-15T00:11:08.978Z,97635.06
2019-05-15T00:13:38.999Z,97608.45
2019-05-15T00:16:08.427Z,97631.80
2019-05-15T00:18:38.795Z,97632.11
2019-05-15T00:21:08.959Z,97624.59
2019-05-15T00:23:38.751Z,97615.01
2019-05-15T00:26:06.276Z,97616.14
2019-05-15T00:28:34.496Z,97613.59
2019-05-15T00:31:02.626Z,97601.41
2019-05-15T00:33:30.593Z,97608.80
2019-05-15T00:35:58.961Z,97601.80
2019-05-15T00:38:27.979Z,97596.52
2019-05-15T00:40:58.293Z,97595.24
2019-05-15T00:43:25.993Z,97588.70
2019-05-15T00:45:53.813Z,97589.86
2019-05-15T00:48:21.708Z,97582.43
2019-05-15T00:50:49.723Z,97562.34
2019-05-15T00:53:19.604Z,97556.59
2019-05-15T00:55:48.647Z,97549.82
2019-05-15T00:58:19.646Z,97550.78
2019-05-15T01:00:48.520Z,97555.55
2019-05-15T01:03:18.275Z,97555.96
2019-05-15T01:05:48.115Z,97570.20
2019-05-15T01:08:16.110Z,97563.19
2019-05-15T01:10:44.111Z,97560.52
2019-05-15T01:13:12.197Z,97558.49
2019-05-15T01:15:40.462Z,97554.77
2019-05-15T01:18:09.380Z,97552.63
2019-05-15T01:20:39.182Z,97556.69
2019-05-15T01:23:08.897Z,97556.25
2019-05-15T01:25:39.013Z,97550.61
2019-05-15T01:28:09.455Z,97553.67
2019-05-15T01:30:39.310Z,97538.75
2019-05-15T01:33:08.414Z,97550.50
2019-05-15T01:35:38.417Z,97546.64
2019-05-15T01:38:08.123Z,97545.87
2019-05-15T01:40:38.495Z,97544.20
2019-05-15T01:43:08.793Z,97549.33
2019-05-15T01:45:39.396Z,97548.90
2019-05-15T01:48:08.112Z,97536.50
2019-05-15T01:50:38.405Z,97539.34
2019-05-15T01:53:08.178Z,97502.08
2019-05-15T01:55:36.274Z,97519.32
2019-05-15T01:58:04.288Z,97516.57
2019-05-15T02:00:33.441Z,97520.22
2019-05-15T02:03:01.458Z,97516.13
2019-05-15T02:05:29.199Z,97523.67
2019-05-15T02:07:58.525Z,97517.59
2019-05-15T02:10:29.044Z,97509.52
2019-05-15T02:12:58.647Z,97499.59
2019-05-15T02:15:28.476Z,97506.69
2019-05-15T02:17:56.152Z,97506.33
2019-05-15T02:20:24.262Z,97505.56
2019-05-15T02:22:52.188Z,97497.38
2019-05-15T02:25:20.632Z,97497.94
2019-05-15T02:27:48.544Z,97490.47
2019-05-15T02:30:27.991Z,97486.31
2019-05-15T02:32:49.872Z,97481.58
2019-05-15T02:35:18.503Z,97488.95
2019-05-15T02:37:48.925Z,97486.87
2019-05-15T02:40:19.168Z,97485.98
2019-05-15T02:42:49.351Z,97484.28
2019-05-15T02:45:19.603Z,97486.15
2019-05-15T02:47:48.775Z,97477.56
2019-05-15T02:50:20.192Z,97475.38
2019-05-15T02:52:49.766Z,97481.16
2019-05-15T02:55:19.647Z,97471.22
2019-05-15T02:57:49.458Z,97476.59
2019-05-15T03:00:36.658Z,97480.26
2019-05-15T03:02:49.874Z,97483.45
2019-05-15T03:05:19.590Z,97477.61
2019-05-15T03:07:49.300Z,97473.89
2019-05-15T03:10:19.981Z,97473.13
2019-05-15T03:12:49.492Z,97473.92
2019-05-15T03:15:19.473Z,97467.50
2019-05-15T03:17:49.396Z,97464.76
2019-05-15T03:20:18.652Z,97468.00
2019-05-15T03:22:49.180Z,97465.39
2019-05-15T03:25:19.122Z,97461.12
2019-05-15T03:27:49.705Z,97463.44
2019-05-15T03:30:21.113Z,97455.62
2019-05-15T03:32:53.504Z,97461.02
2019-05-15T03:35:17.525Z,97458.53
2019-05-15T03:37:49.010Z,97457.16
2019-05-15T03:40:19.095Z,97458.05
2019-05-15T03:42:45.585Z,97461.94
2019-05-15T03:45:13.828Z,97469.78
2019-05-15T03:47:41.458Z,97456.99
2019-05-15T03:50:09.577Z,97427.34
2019-05-15T03:52:39.486Z,97467.05
2019-05-15T03:55:10.567Z,97456.97
2019-05-15T03:57:39.881Z,97461.50
2019-05-15T04:00:09.642Z,97462.80
2019-05-15T04:02:39.410Z,97459.97
2019-05-15T04:05:11.793Z,97459.27
2019-05-15T04:07:39.720Z,97462.69
2019-05-15T04:10:09.929Z,97451.95
2019-05-15T04:12:40.445Z,97447.27
2019-05-15T04:15:10.055Z,97441.98
2019-05-15T04:17:40.126Z,97442.34
2019-05-15T04:20:09.807Z,97456.11
2019-05-15T04:22:42.231Z,97445.17
2019-05-15T04:25:10.920Z,97446.83
2019-05-15T04:27:40.331Z,97435.77
2019-05-15T04:30:10.569Z,97453.38
2019-05-15T04:32:40.068Z,97444.52
2019-05-15T04:35:09.506Z,97437.34
2019-05-15T04:37:40.821Z,97437.39
2019-05-15T04:40:09.477Z,97428.19
2019-05-15T04:42:39.812Z,97431.30
2019-05-15T04:45:09.956Z,97428.93
2019-05-15T04:47:39.641Z,97437.77
2019-05-15T04:50:08.961Z,97438.02
2019-05-15T04:52:39.454Z,97434.80
2019-05-15T04:55:10.289Z,97430.63
2019-05-15T04:57:40.247Z,97434.15
2019-05-15T05:00:09.624Z,97427.42
2019-05-15T05:02:39.878Z,97432.16
2019-05-15T05:05:10.158Z,97441.19
2019-05-15T05:07:38.972Z,97439.62
2019-05-15T05:10:09.711Z,97438.38
2019-05-15T05:12:41.372Z,97439.19
2019-05-15T05:15:08.500Z,97451.23
2019-05-15T05:17:38.799Z,97450.66
2019-05-15T05:20:08.068Z,97451.09
2019-05-15T05:22:38.933Z,97451.27
2019-05-15T05:25:08.150Z,97443.69
2019-05-15T05:27:38.043Z,97444.58
2019-05-15T05:30:08.163Z,97443.94
2019-05-15T05:32:35.527Z,97447.74
2019-05-15T05:35:05.272Z,97444.00
2019-05-15T05:37:33.245Z,97451.86
2019-05-15T05:40:01.215Z,97458.13
2019-05-15T05:42:29.370Z,97449.53
2019-05-15T05:44:58.249Z,97444.23
2019-05-15T05:47:28.728Z,97443.17
2019-05-15T05:49:58.169Z,97449.68
2019-05-15T05:52:27.982Z,97442.38
2019-05-15T05:54:58.132Z,97449.39
2019-05-15T05:57:27.949Z,97453.53
2019-05-15T05:59:58.179Z,97454.69
2019-05-15T06:02:28.039Z,97453.96
2019-05-15T06:04:58.286Z,97455.85
2019-05-15T06:07:27.927Z,97462.30
2019-05-15T06:09:57.997Z,97456.64
2019-05-15T06:12:28.104Z,97454.37
2019-05-15T06:14:57.953Z,97457.02
2019-05-15T06:17:27.956Z,97454.28
2019-05-15T06:19:55.249Z,97454.00
2019-05-15T06:22:23.316Z,97449.17
2019-05-15T06:24:51.282Z,97445.88
2019-05-15T06:27:20.029Z,97444.56
2019-05-15T06:29:48.558Z,97447.46
2019-05-15T06:32:19.253Z,97444.62
2019-05-15T06:34:48.483Z,97450.09
2019-05-15T06:37:19.446Z,97454.84
2019-05-15T06:39:48.129Z,97451.34
2019-05-15T06:42:18.618Z,97453.83
2019-05-15T06:44:48.297Z,97456.38
2019-05-15T06:47:18.018Z,97452.80
2019-05-15T06:49:45.660Z,97459.59
2019-05-15T06:52:13.792Z,97457.88
2019-05-15T06:54:41.772Z,97460.44
2019-05-15T06:57:10.011Z,97454.32
2019-05-15T06:59:38.907Z,97458.67
2019-05-15T07:02:08.118Z,97452.14
2019-05-15T07:04:38.189Z,97452.90
2019-05-15T07:07:10.435Z,97461.31
2019-05-15T07:09:37.956Z,97454.66
2019-05-15T07:12:08.086Z,97456.27
2019-05-15T07:14:38.017Z,97462.95
2019-05-15T07:17:09.240Z,97457.89
2019-05-15T07:19:39.292Z,97460.40
2019-05-15T07:22:09.348Z,97457.36
2019-05-15T07:24:38.333Z,97463.19
2019-05-15T07:27:08.030Z,97453.90
2019-05-15T07:29:38.385Z,97456.63
2019-05-15T07:32:07.998Z,97456.96
2019-05-15T07:34:37.828Z,97452.86
2019-05-15T07:37:05.605Z,97450.58
2019-05-15T07:39:33.461Z,97447.89
2019-05-15T07:42:01.667Z,97444.30
2019-05-15T07:44:29.595Z,97448.30
2019-05-15T07:46:58.333Z,97449.25
2019-05-15T07:49:28.731Z,97444.62
2019-05-15T07:51:59.025Z,97450.31
2019-05-15T07:54:28.856Z,97439.30
2019-05-15T07:56:58.240Z,97440.81
2019-05-15T07:59:27.981Z,97432.86
2019-05-15T08:01:58.172Z,97427.14
2019-05-15T08:04:30.510Z,97424.24
2019-05-15T08:06:58.917Z,97423.83
2019-05-15T08:09:28.279Z,97425.19
2019-05-15T08:11:55.848Z,97428.62
2019-05-15T08:14:23.797Z,97418.84
2019-05-15T08:16:51.595Z,97419.63
2019-05-15T08:19:19.550Z,97423.20
2019-05-15T08:21:51.894Z,97425.37
2019-05-15T08:24:18.825Z,97426.51
2019-05-15T08:26:48.640Z,97425.71
2019-05-15T08:29:21.463Z,97424.42
2019-05-15T08:31:48.221Z,97430.71
2019-05-15T08:34:19.423Z,97424.50
2019-05-15T08:36:48.243Z,97419.25
2019-05-15T08:39:18.866Z,97416.63
2019-05-15T08:41:48.369Z,97416.91
2019-05-15T08:44:18.417Z,97425.69
2019-05-15T08:46:48.041Z,97420.95
2019-05-15T08:49:16.037Z,97418.78
2019-05-15T08:51:44.090Z,97412.52
2019-05-15T08:54:11.924Z,97424.42
2019-05-15T08:56:39.946Z,97417.67
2019-05-15T08:59:08.823Z,97417.05
2019-05-15T09:01:38.239Z,97412.98
2019-05-15T09:04:09.010Z,97404.20
2019-05-15T09:06:41.042Z,97403.84
2019-05-15T09:09:09.650Z,97407.53
2019-05-15T09:11:39.294Z,97404.45
2019-05-15T09:14:08.195Z,97400.08
2019-05-15T09:16:38.547Z,97397.95
2019-05-15T09:19:08.195Z,97401.75
2019-05-15T09:21:38.541Z,97392.77
2019-05-15T09:24:05.833Z,97401.93
2019-05-15T09:26:35.526Z,97400.65
2019-05-15T09:29:03.636Z,97393.19
2019-05-15T09:31:31.763Z,97394.62
2019-05-15T09:33:59.514Z,97399.63
2019-05-15T09:36:28.879Z,97386.63
2019-05-15T09:38:58.514Z,97391.64
2019-05-15T09:41:28.634Z,97383.18
2019-05-15T09:43:57.893Z,97378.25
2019-05-15T09:46:26.152Z,97370.66
2019-05-15T09:48:54.202Z,97364.58
2019-05-15T09:51:22.285Z,97370.68
2019-05-15T09:53:50.441Z,97364.73
2019-05-15T09:56:18.810Z,97363.66
2019-05-15T09:58:48.850Z,97358.45
2019-05-15T10:01:19.573Z,97359.92
2019-05-15T10:03:48.848Z,97348.97
2019-05-15T10:06:20.112Z,97347.25
2019-05-15T10:08:49.064Z,97335.55
2019-05-15T10:11:19.775Z,97336.61
2019-05-15T10:13:47.152Z,97341.18
2019-05-15T10:16:19.762Z,97349.91
2019-05-15T10:18:50.834Z,97349.33
2019-05-15T10:21:18.565Z,97334.58
2019-05-15T10:23:49.137Z,97348.58
2019-05-15T10:26:19.077Z,97335.17
2019-05-15T10:28:49.389Z,97337.38
2019-05-15T10:31:19.260Z,97333.39
2019-05-15T10:33:48.963Z,97335.91
2019-05-15T10:36:18.952Z,97329.16
2019-05-15T10:38:48.897Z,97329.73
2019-05-15T10:41:18.822Z,97329.03
2019-05-15T10:43:55.573Z,97327.36
2019-05-15T10:46:19.037Z,97337.27
2019-05-15T10:48:49.259Z,97337.09
2019-05-15T10:51:19.599Z,97322.97
2019-05-15T10:53:48.735Z,97322.07
2019-05-15T10:56:18.546Z,97324.16
2019-05-15T10:58:50.213Z,97319.85
2019-05-15T11:01:18.951Z,97323.18
2019-05-15T11:03:49.266Z,97316.05
2019-05-15T11:06:18.345Z,97319.67
2019-05-15T11:08:50.986Z,97321.27
2019-05-15T11:11:18.397Z,97325.00
2019-05-15T11:13:46.359Z,97324.26
2019-05-15T11:16:14.367Z,97326.17
2019-05-15T11:18:42.592Z,97320.00
2019-05-15T11:21:12.062Z,97304.00
2019-05-15T11:23:42.571Z,97316.46
2019-05-15T11:26:09.973Z,97322.42
2019-05-15T11:28:39.072Z,97323.52
2019-05-15T11:31:10.464Z,97326.72
2019-05-15T11:33:38.498Z,97322.98
2019-05-15T11:36:06.573Z,97332.63
2019-05-15T11:38:34.573Z,97324.05
2019-05-15T11:41:04.661Z,97332.87
2019-05-15T11:43:32.463Z,97326.63
2019-05-15T11:46:00.388Z,97331.27
2019-05-15T11:48:29.888Z,97328.66
2019-05-15T11:50:58.026Z,97324.16
2019-05-15T11:53:28.435Z,97331.30
2019-05-15T11:55:56.452Z,97328.22
2019-05-15T11:58:24.668Z,97329.69
2019-05-15T12:00:52.591Z,97333.06
2019-05-15T12:03:24.151Z,97328.53
2019-05-15T12:05:50.577Z,97332.98
2019-05-15T12:08:18.850Z,97322.22
2019-05-15T12:10:46.962Z,97335.06
2019-05-15T12:13:14.961Z,97331.66
2019-05-15T12:15:42.891Z,97330.17
2019-05-15T12:18:10.807Z,97312.92
2019-05-15T12:20:39.180Z,97326.89
2019-05-15T12:23:09.013Z,97333.57
2019-05-15T12:25:39.537Z,97333.63
2019-05-15T12:28:09.467Z,97330.58
2019-05-15T12:30:39.674Z,97333.11
2019-05-15T12:33:09.293Z,97324.93
2019-05-15T12:35:39.802Z,97332.08
2019-05-15T12:38:08.881Z,97325.86
2019-05-15T13:00:38.147Z,97358.16
2019-05-15T13:03:05.968Z,97352.91
2019-05-15T13:05:34.015Z,97348.67
2019-05-15T13:08:02.112Z,97346.41
2019-05-15T13:10:30.599Z,97343.97
2019-05-15T13:13:04.989Z,97350.45
2019-05-15T13:15:28.902Z,97355.34
2019-05-15T13:17:59.527Z,97354.05
2019-05-15T13:20:28.815Z,97360.88
2019-05-15T13:22:59.207Z,97362.78
2019-05-15T13:25:28.007Z,97364.51
2019-05-15T13:27:58.082Z,97333.97
2019-05-15T13:30:26.471Z,97373.91
2019-05-15T13:32:54.428Z,97373.55
2019-05-15T13:35:22.526Z,97373.83
2019-05-15T13:37:50.808Z,97377.66
2019-05-15T13:40:33.829Z,97377.19
2019-05-15T13:42:51.719Z,97377.92
2019-05-15T13:45:19.187Z,97377.20
2019-05-15T13:47:48.133Z,97377.12
2019-05-15T13:50:19.357Z,97384.33
2019-05-15T13:52:48.217Z,97388.77
2019-05-15T13:55:16.243Z,97396.09
2019-05-15T13:57:44.168Z,97399.09
2019-05-15T14:00:12.660Z,97402.66
2019-05-15T14:02:40.311Z,97400.62
2019-05-15T14:05:09.632Z,97402.33
2019-05-15T14:07:48.700Z,97404.69
2019-05-15T14:10:09.455Z,97407.19
2019-05-15T14:12:38.325Z,97398.25
2019-05-15T14:15:09.047Z,97400.63
2019-05-15T14:17:37.687Z,97376.50
2019-05-15T14:20:08.713Z,97402.94
2019-05-15T14:22:38.950Z,97405.11
2019-05-15T14:25:08.850Z,97403.66
2019-05-15T14:27:39.886Z,97403.26
2019-05-15T14:30:08.925Z,97405.31
2019-05-15T14:32:39.520Z,97406.98
2019-05-15T14:35:09.003Z,97407.91
2019-05-15T14:37:37.467Z,97408.31
2019-05-15T14:40:08.707Z,97412.67
2019-05-15T14:42:39.523Z,97412.30
2019-05-15T14:45:08.883Z,97415.95
2019-05-15T14:47:38.568Z,97422.98
2019-05-15T14:50:10.025Z,97428.62
2019-05-15T14:52:38.559Z,97434.08
2019-05-15T14:55:07.058Z,97428.34
2019-05-15T14:57:35.163Z,97434.08
2019-05-15T15:00:03.189Z,97433.59
2019-05-15T15:02:32.212Z,97433.60
2019-05-15T15:05:00.353Z,97440.71
2019-05-15T15:07:28.471Z,97422.46
2019-05-15T15:09:58.260Z,97437.77
2019-05-15T15:12:28.385Z,97433.70
2019-05-15T15:14:56.732Z,97440.18
2019-05-15T15:17:24.913Z,97445.39
2019-05-15T15:19:53.302Z,97440.41
2019-05-15T15:22:21.612Z,97441.41
2019-05-15T15:24:49.820Z,97439.56
2019-05-15T15:27:18.057Z,97431.69
2019-05-15T15:29:48.180Z,97432.45
2019-05-15T15:32:16.396Z,97429.55
2019-05-15T15:34:44.454Z,97430.96
2019-05-15T15:37:12.537Z,97433.99
2019-05-15T15:39:40.598Z,97407.83
2019-05-15T15:42:08.837Z,97437.91
2019-05-15T15:44:38.033Z,97430.48
2019-05-15T15:47:08.677Z,97435.70
2019-05-15T15:49:38.792Z,97440.18
2019-05-15T15:52:08.779Z,97441.31
2019-05-15T15:54:39.415Z,97442.64
2019-05-15T15:57:08.388Z,97446.88
2019-05-15T15:59:38.588Z,97440.18
2019-05-15T16:02:08.826Z,97447.16
2019-05-15T16:04:39.291Z,97446.52
2019-05-15T16:07:09.665Z,97448.13
2019-05-15T16:09:38.814Z,97451.30
2019-05-15T16:12:09.305Z,97448.09
2019-05-15T16:14:38.138Z,97447.48
2019-05-15T16:17:08.438Z,97446.55
2019-05-15T16:19:38.443Z,97449.22
2019-05-15T16:22:08.593Z,97448.11
2019-05-15T16:24:38.210Z,97447.91
2019-05-15T16:27:06.054Z,97444.97
2019-05-15T16:29:35.234Z,97422.11
2019-05-15T16:32:03.277Z,97436.22
2019-05-15T16:34:31.293Z,97443.61
2019-05-15T16:36:59.443Z,97452.70
2019-05-15T16:39:28.700Z,97447.21
2019-05-15T16:41:59.202Z,97456.85
2019-05-15T16:44:28.925Z,97449.68
2019-05-15T16:46:58.714Z,97455.52
2019-05-15T16:49:28.455Z,97460.73
2019-05-15T16:51:58.326Z,97461.50
2019-05-15T16:54:28.809Z,97459.87
2019-05-15T16:56:58.743Z,97457.31
2019-05-15T16:59:28.739Z,97465.36
2019-05-15T17:01:56.460Z,97463.67
2019-05-15T17:04:24.599Z,97470.64
2019-05-15T17:06:52.686Z,97461.59
2019-05-15T17:09:21.895Z,97466.52
2019-05-15T17:11:49.958Z,97473.32
2019-05-15T17:14:19.823Z,97472.91
2019-05-15T17:16:48.146Z,97476.70
2019-05-15T17:19:18.004Z,97479.53
2019-05-15T17:21:48.172Z,97475.56
2019-05-15T17:24:16.722Z,97478.20
2019-05-15T17:26:44.740Z,97476.50
2019-05-15T17:29:12.809Z,97484.27
2019-05-15T17:31:41.147Z,97488.41
2019-05-15T17:34:09.245Z,97484.56
2019-05-15T17:36:38.253Z,97494.06
2019-05-15T17:39:08.868Z,97489.71
2019-05-15T17:41:39.092Z,97490.18
2019-05-15T17:44:06.983Z,97491.03
2019-05-15T17:46:35.339Z,97488.93
2019-05-15T17:49:08.975Z,97492.55
2019-05-15T17:51:33.357Z,97498.31
2019-05-15T17:54:03.122Z,97499.25
2019-05-15T17:56:31.555Z,97499.31
2019-05-15T17:58:59.306Z,97500.40
2019-05-15T18:01:28.287Z,97493.58
2019-05-15T18:03:59.154Z,97507.57
2019-05-15T18:06:28.904Z,97504.23
2019-05-15T18:08:59.337Z,97503.77
2019-05-15T18:11:27.872Z,97501.13
2019-05-15T18:13:58.045Z,97501.79
2019-05-15T18:16:25.830Z,97500.16
2019-05-15T18:18:54.151Z,97503.53
2019-05-15T18:21:23.378Z,97496.74
2019-05-15T18:23:51.419Z,97511.63
2019-05-15T18:26:20.092Z,97512.36
2019-05-15T18:28:48.951Z,97515.55
2019-05-15T18:31:18.145Z,97514.34
2019-05-15T18:33:53.881Z,97524.07
2019-05-15T18:36:16.730Z,97522.90
2019-05-15T18:38:45.050Z,97502.81
2019-05-15T18:41:14.523Z,97522.13
2019-05-15T18:43:42.384Z,97525.42
2019-05-15T18:46:10.432Z,97522.28
2019-05-15T18:48:38.606Z,97520.96
2019-05-15T18:51:08.107Z,97526.83
2019-05-15T18:53:38.674Z,97528.50
2019-05-15T18:56:08.779Z,97522.39
2019-05-15T18:58:38.130Z,97528.03
2019-05-15T19:01:09.051Z,97527.95
2019-05-15T19:03:38.429Z,97503.20
2019-05-15T19:06:08.742Z,97524.49
2019-05-15T19:08:38.747Z,97519.55
2019-05-15T19:11:08.534Z,97510.07
2019-05-15T19:13:38.774Z,97506.43
2019-05-15T19:16:06.684Z,97521.58
2019-05-15T19:18:34.808Z,97521.62
2019-05-15T19:21:02.864Z,97521.81
2019-05-15T19:23:30.863Z,97522.86
2019-05-15T19:25:58.870Z,97525.23
2019-05-15T19:28:28.668Z,97521.93
2019-05-15T19:30:58.569Z,97518.70
2019-05-15T19:33:36.432Z,97523.91
2019-05-15T19:35:56.621Z,97517.16
2019-05-15T19:38:24.628Z,97528.14
2019-05-15T19:40:53.082Z,97513.73
2019-05-15T19:43:21.308Z,97498.01
2019-05-15T19:45:51.932Z,97509.36
2019-05-15T19:48:20.260Z,97527.90
2019-05-15T19:50:48.243Z,97526.42
2019-05-15T19:53:18.829Z,97531.55
2019-05-15T19:55:47.970Z,97530.23
2019-05-15T19:58:18.328Z,97537.19
2019-05-15T20:00:47.974Z,97531.55
2019-05-15T20:03:17.705Z,97525.92
2019-05-15T20:05:45.595Z,97524.61
2019-05-15T20:08:13.634Z,97522.04
2019-05-15T20:10:41.742Z,97517.81
2019-05-15T20:13:09.913Z,97514.04
2019-05-15T20:15:38.148Z,97508.56
2019-05-15T20:18:07.925Z,97506.27
2019-05-15T20:20:38.263Z,97510.31
2019-05-15T20:23:08.535Z,97508.60
2019-05-15T20:25:35.793Z,97507.67
2019-05-15T20:28:03.763Z,97504.48
2019-05-15T20:30:32.806Z,97507.13
2019-05-15T20:33:00.838Z,97506.07
2019-05-15T20:35:29.258Z,97500.02
2019-05-15T20:37:58.192Z,97501.41
2019-05-15T20:40:26.241Z,97500.74
2019-05-15T20:42:54.108Z,97503.42
2019-05-15T20:45:22.688Z,97495.93
2019-05-15T20:47:50.598Z,97499.03
2019-05-15T20:50:19.457Z,97494.34
2019-05-15T20:52:48.892Z,97494.00
2019-05-15T20:55:17.227Z,97495.63
2019-05-15T20:57:47.653Z,97493.92
2019-05-15T21:00:15.507Z,97497.25
2019-05-15T21:02:43.432Z,97493.66
2019-05-15T21:05:11.992Z,97501.11
2019-05-15T21:07:43.087Z,97507.13
2019-05-15T21:10:10.572Z,97509.42
2019-05-15T21:12:41.121Z,97514.28
2019-05-15T21:15:09.120Z,97516.33
2019-05-15T21:17:40.346Z,97513.84
2019-05-15T21:20:10.440Z,97522.16
2019-05-15T21:22:39.881Z,97502.50
2019-05-15T21:25:08.077Z,97522.55
2019-05-15T21:27:41.155Z,97520.84
2019-05-15T21:30:08.978Z,97528.77
2019-05-15T21:32:38.283Z,97526.05
2019-05-15T21:35:08.799Z,97524.73
2019-05-15T21:37:39.020Z,97521.62
2019-05-15T21:40:08.133Z,97514.84
2019-05-15T21:42:38.987Z,97524.03
2019-05-15T21:45:13.724Z,97520.84
2019-05-15T21:47:38.560Z,97517.77
2019-05-15T21:50:08.061Z,97519.74
2019-05-15T21:52:38.389Z,97518.81
2019-05-15T21:55:08.950Z,97517.95
2019-05-15T21:57:39.333Z,97516.68
2019-05-15T22:00:10.516Z,97516.95
2019-05-15T22:02:39.102Z,97517.85
2019-05-15T22:05:08.669Z,97515.95
2019-05-15T22:07:38.682Z,97515.56
2019-05-15T22:10:10.616Z,97518.16
2019-05-15T22:12:37.740Z,97515.48
2019-05-15T22:15:06.833Z,97517.73
2019-05-15T22:17:38.847Z,97517.92
2019-05-15T22:20:08.475Z,97519.91
2019-05-15T22:22:37.844Z,97522.82
2019-05-15T22:25:10.770Z,97510.63
2019-05-15T22:27:37.794Z,97509.37
2019-05-15T22:30:08.701Z,97506.41
2019-05-15T22:32:41.209Z,97500.31
2019-05-15T22:35:13.362Z,97496.08
2019-05-15T22:37:38.719Z,97493.13
2019-05-15T22:40:08.918Z,97489.12
2019-05-15T22:42:39.095Z,97491.61
2019-05-15T22:45:09.059Z,97490.48
2019-05-15T22:47:38.966Z,97487.65
2019-05-15T22:50:08.333Z,97484.86
2019-05-15T22:52:38.573Z,97484.23
2019-05-15T22:55:06.386Z,97478.02
2019-05-15T22:57:34.398Z,97482.02
2019-05-15T23:00:02.458Z,97470.56
2019-05-15T23:02:31.897Z,97485.13
2019-05-15T23:05:00.435Z,97487.27
2019-05-15T23:07:28.525Z,97484.63
2019-05-15T23:09:58.300Z,97491.50
2019-05-15T23:12:28.609Z,97497.33
2019-05-15T23:14:57.918Z,97495.11
2019-05-15T23:17:27.778Z,97494.33
2019-05-15T23:19:57.815Z,97495.83
2019-05-15T23:22:27.801Z,97495.88
2019-05-15T23:24:58.532Z,97499.33
2019-05-15T23:29:59.225Z,97487.57
2019-05-15T23:32:28.903Z,97495.64
2019-05-15T23:34:58.414Z,97484.96
2019-05-15T23:37:28.078Z,97487.27
2019-05-15T23:39:57.918Z,97483.69
2019-05-15T23:42:25.823Z,97481.59
2019-05-15T23:44:53.859Z,97480.58
2019-05-15T23:47:21.964Z,97477.09
2019-05-15T23:49:49.904Z,97481.05
2019-05-15T23:52:18.867Z,97477.24
2019-05-15T23:54:46.697Z,97481.93
2019-05-15T23:57:14.843Z,97471.61
2019-05-15T23:59:42.818Z,97471.73
